createdAt,value
2019-01-23T00:00:51.969Z,56.08
2019-01-23T00:03:25.008Z,59.53
2019-01-23T00:05:57.877Z,58.57
2019-01-23T00:08:32.170Z,55.20
2019-01-23T00:11:05.345Z,55.70
2019-01-23T00:13:38.331Z,57.63
2019-01-23T00:16:11.820Z,55.13
2019-01-23T00:18:46.789Z,55.87
2019-01-23T00:21:19.648Z,57.80
2019-01-23T00:23:53.160Z,59.43
2019-01-23T00:26:25.990Z,57.67
2019-01-23T00:28:58.943Z,55.15
2019-01-23T00:31:32.372Z,60.37
2019-01-23T00:34:05.591Z,56.63
2019-01-23T00:36:39.488Z,58.50
2019-01-23T00:39:13.025Z,52.83
2019-01-23T00:41:45.916Z,53.80
2019-01-23T00:44:18.936Z,54.13
2019-01-23T00:46:53.817Z,56.67
2019-01-23T00:49:26.740Z,54.70
2019-01-23T00:52:00.828Z,57.73
2019-01-23T00:54:36.516Z,56.85
2019-01-23T00:57:09.337Z,54.50
2019-01-23T00:59:43.191Z,55.43
2019-01-23T01:02:16.882Z,53.23
2019-01-23T01:04:49.769Z,52.83
2019-01-23T01:07:22.819Z,51.77
2019-01-23T01:09:56.367Z,54.38
2019-01-23T01:12:29.704Z,56.53
2019-01-23T01:15:05.178Z,54.83
2019-01-23T01:17:38.407Z,55.23
2019-01-23T01:20:12.163Z,52.73
2019-01-23T01:22:45.293Z,52.97
2019-01-23T01:25:19.650Z,54.40
2019-01-23T01:27:52.640Z,54.47
2019-01-23T01:30:26.321Z,52.33
2019-01-23T01:33:00.903Z,52.70
2019-01-23T01:35:33.796Z,48.53
2019-01-23T01:38:06.883Z,51.13
2019-01-23T01:40:43.450Z,52.17
2019-01-23T01:43:16.492Z,50.77
2019-01-23T01:45:49.780Z,52.23
2019-01-23T01:48:23.517Z,51.78
2019-01-23T01:50:57.579Z,53.27
2019-01-23T01:53:30.388Z,47.63
2019-01-23T01:56:04.116Z,47.07
2019-01-23T01:58:37.312Z,47.92
2019-01-23T02:01:10.212Z,46.40
2019-01-23T02:03:43.788Z,45.67
2019-01-23T02:06:16.777Z,49.73
2019-01-23T02:08:49.557Z,44.03
2019-01-23T02:11:22.960Z,45.63
2019-01-23T02:13:56.400Z,47.23
2019-01-23T02:16:30.020Z,47.50
2019-01-23T02:19:03.483Z,42.60
2019-01-23T02:21:36.537Z,44.37
2019-01-23T02:24:09.377Z,45.40
2019-01-23T02:26:42.568Z,45.77
2019-01-23T02:29:15.452Z,43.13
2019-01-23T02:31:48.289Z,42.03
2019-01-23T02:34:21.674Z,43.03
2019-01-23T02:36:54.733Z,42.50
2019-01-23T02:39:27.652Z,47.37
2019-01-23T02:42:01.056Z,43.07
2019-01-23T02:44:33.796Z,40.60
2019-01-23T02:47:07.044Z,42.33
2019-01-23T02:49:40.597Z,39.60
2019-01-23T02:52:13.543Z,41.13
2019-01-23T02:54:46.519Z,41.60
2019-01-23T02:57:20.795Z,39.97
2019-01-23T02:59:54.384Z,41.17
2019-01-23T03:02:27.280Z,44.90
2019-01-23T03:05:01.598Z,45.00
2019-01-23T03:07:36.500Z,42.60
2019-01-23T03:10:13.697Z,41.97
2019-01-23T03:12:46.902Z,41.17
2019-01-23T03:15:20.169Z,42.97
2019-01-23T03:17:53.001Z,42.00
2019-01-23T03:20:26.097Z,43.50
2019-01-23T03:22:59.590Z,41.73
2019-01-23T03:25:32.394Z,43.23
2019-01-23T03:28:05.389Z,43.57
2019-01-23T03:30:39.707Z,42.17
2019-01-23T03:33:12.522Z,41.67
2019-01-23T03:35:45.377Z,42.17
2019-01-23T03:38:18.749Z,46.27
2019-01-23T03:40:51.583Z,44.10
2019-01-23T03:43:24.510Z,42.60
2019-01-23T03:45:57.924Z,45.10
2019-01-23T03:48:30.904Z,44.63
2019-01-23T03:51:04.032Z,43.90
2019-01-23T03:53:37.476Z,42.87
2019-01-23T03:56:10.337Z,43.27
2019-01-23T03:58:43.496Z,43.00
2019-01-23T04:01:16.837Z,44.13
2019-01-23T04:03:49.943Z,44.63
2019-01-23T04:06:22.795Z,41.07
2019-01-23T04:08:56.266Z,42.57
2019-01-23T04:11:29.952Z,43.10
2019-01-23T04:14:03.382Z,44.93
2019-01-23T04:16:37.467Z,42.53
2019-01-23T04:19:10.441Z,40.67
2019-01-23T04:21:43.443Z,44.10
2019-01-23T04:24:17.754Z,42.05
2019-01-23T04:26:51.430Z,39.60
2019-01-23T04:29:26.216Z,48.97
2019-01-23T04:31:59.552Z,45.57
2019-01-23T04:34:32.435Z,38.93
2019-01-23T04:37:06.026Z,42.97
2019-01-23T04:39:39.419Z,46.57
2019-01-23T04:42:12.980Z,43.23
2019-01-23T04:44:46.123Z,45.70
2019-01-23T04:47:19.245Z,42.47
2019-01-23T04:49:52.238Z,46.37
2019-01-23T04:52:31.008Z,44.50
2019-01-23T04:55:04.493Z,41.53
2019-01-23T04:57:37.378Z,45.25
2019-01-23T05:00:14.917Z,42.07
2019-01-23T05:02:48.598Z,44.33
2019-01-23T05:05:21.764Z,41.53
2019-01-23T05:07:54.621Z,43.27
2019-01-23T05:10:27.550Z,44.37
2019-01-23T05:13:00.947Z,42.80
2019-01-23T05:15:35.530Z,44.70
2019-01-23T05:18:10.327Z,46.37
2019-01-23T05:20:43.817Z,66.50
2019-01-23T05:23:16.661Z,49.83
2019-01-23T05:25:53.151Z,49.80
2019-01-23T05:28:26.448Z,44.17
2019-01-23T05:31:00.374Z,47.33
2019-01-23T05:33:33.221Z,45.07
2019-01-23T05:36:06.768Z,42.93
2019-01-23T05:38:39.636Z,45.03
2019-01-23T05:41:13.284Z,44.13
2019-01-23T05:43:46.947Z,45.87
2019-01-23T05:46:23.576Z,45.63
2019-01-23T05:48:56.524Z,49.03
2019-01-23T05:51:29.904Z,47.50
2019-01-23T05:54:03.381Z,43.93
2019-01-23T05:56:36.691Z,43.10
2019-01-23T05:59:10.752Z,48.17
2019-01-23T06:01:44.331Z,44.83
2019-01-23T06:04:17.314Z,48.37
2019-01-23T06:06:50.269Z,47.13
2019-01-23T06:09:23.112Z,45.60
2019-01-23T06:11:56.037Z,46.03
2019-01-23T06:14:28.776Z,48.13
2019-01-23T06:17:03.047Z,46.13
2019-01-23T06:19:36.022Z,48.30
2019-01-23T06:22:12.073Z,46.55
2019-01-23T06:24:45.253Z,48.47
2019-01-23T06:27:19.136Z,48.40
2019-01-23T06:29:54.427Z,47.73
2019-01-23T06:32:28.401Z,47.97
2019-01-23T06:35:01.510Z,52.13
2019-01-23T06:37:35.599Z,48.80
2019-01-23T06:40:10.612Z,50.30
2019-01-23T06:42:43.487Z,46.40
2019-01-23T06:45:18.508Z,52.23
2019-01-23T06:47:51.789Z,51.37
2019-01-23T06:50:24.757Z,52.00
2019-01-23T06:52:58.173Z,49.15
2019-01-23T06:55:31.339Z,48.80
2019-01-23T06:58:05.522Z,49.97
2019-01-23T07:00:39.755Z,53.47
2019-01-23T07:03:15.181Z,51.97
2019-01-23T07:05:48.963Z,56.67
2019-01-23T07:08:23.066Z,55.37
2019-01-23T07:10:56.045Z,54.77
2019-01-23T07:13:30.133Z,56.50
2019-01-23T07:16:03.536Z,52.23
2019-01-23T07:18:37.769Z,52.57
2019-01-23T07:21:10.656Z,53.53
2019-01-23T07:23:45.642Z,54.47
2019-01-23T07:26:19.869Z,56.57
2019-01-23T07:28:53.476Z,55.90
2019-01-23T07:31:27.313Z,59.57
2019-01-23T07:34:04.964Z,57.43
2019-01-23T07:36:39.022Z,57.97
2019-01-23T07:39:15.552Z,55.83
2019-01-23T07:41:48.880Z,60.20
2019-01-23T07:44:24.413Z,57.37
2019-01-23T07:46:58.548Z,53.10
2019-01-23T07:49:31.953Z,55.93
2019-01-23T07:52:06.300Z,57.70
2019-01-23T07:54:39.210Z,58.87
2019-01-23T07:57:13.326Z,55.63
2019-01-23T07:59:46.919Z,58.13
2019-01-23T08:02:22.186Z,60.40
2019-01-23T08:04:58.896Z,59.77
2019-01-23T08:07:31.848Z,58.77
2019-01-23T08:10:10.593Z,53.53
2019-01-23T08:12:43.958Z,57.20
2019-01-23T08:15:26.377Z,51.87
2019-01-23T08:17:59.578Z,51.87
2019-01-23T08:20:33.520Z,50.97
2019-01-23T08:23:06.441Z,50.90
2019-01-23T08:25:39.916Z,53.77
2019-01-23T08:28:13.891Z,53.77
2019-01-23T08:30:48.617Z,52.90
2019-01-23T08:33:23.261Z,49.97
2019-01-23T08:35:56.627Z,55.50
2019-01-23T08:38:32.487Z,52.17
2019-01-23T08:41:07.296Z,52.97
2019-01-23T08:43:41.404Z,53.37
2019-01-23T08:46:15.981Z,48.20
2019-01-23T08:48:53.681Z,50.87
2019-01-23T08:51:30.453Z,46.63
2019-01-23T08:54:03.993Z,54.07
2019-01-23T08:56:37.994Z,46.10
2019-01-23T08:59:12.993Z,51.23
2019-01-23T09:01:47.805Z,45.53
2019-01-23T09:04:22.173Z,43.23
2019-01-23T09:06:58.676Z,44.97
2019-01-23T09:09:33.492Z,47.77
2019-01-23T09:12:08.663Z,49.10
2019-01-23T09:14:41.561Z,48.87
2019-01-23T09:17:16.818Z,47.27
2019-01-23T09:19:50.985Z,45.13
2019-01-23T09:22:30.048Z,47.50
2019-01-23T09:25:04.749Z,45.03
2019-01-23T09:27:38.800Z,45.20
2019-01-23T09:30:32.446Z,43.40
2019-01-23T09:34:09.065Z,43.40
2019-01-23T09:37:59.139Z,43.10
2019-01-23T09:40:58.895Z,40.38
2019-01-23T09:44:12.409Z,42.17
2019-01-23T09:47:37.793Z,39.58
2019-01-23T09:51:21.019Z,41.28
2019-01-23T09:54:09.105Z,48.40
2019-01-23T09:56:48.032Z,41.50
2019-01-23T09:59:30.126Z,42.20
2019-01-23T10:02:04.414Z,39.47
2019-01-23T10:04:38.863Z,40.97
2019-01-23T10:07:22.071Z,41.83
2019-01-23T10:09:55.038Z,43.10
2019-01-23T10:12:30.593Z,39.47
2019-01-23T10:15:08.096Z,42.67
2019-01-23T10:17:42.859Z,45.00
2019-01-23T10:20:16.099Z,42.03
2019-01-23T10:22:53.168Z,38.40
2019-01-23T10:25:26.701Z,40.03
2019-01-23T10:28:00.614Z,42.13
2019-01-23T10:30:40.329Z,40.40
2019-01-23T10:33:17.411Z,40.50
2019-01-23T10:35:53.676Z,35.50
2019-01-23T10:38:29.585Z,35.17
2019-01-23T10:41:03.913Z,35.37
2019-01-23T10:43:36.797Z,35.53
2019-01-23T10:46:10.138Z,38.40
2019-01-23T10:48:46.941Z,37.07
2019-01-23T10:51:20.850Z,38.53
2019-01-23T10:53:53.662Z,33.93
2019-01-23T10:56:30.532Z,38.17
2019-01-23T10:59:04.547Z,38.87
2019-01-23T11:01:39.779Z,37.40
2019-01-23T11:04:13.413Z,39.73
2019-01-23T11:06:46.472Z,35.90
2019-01-23T11:09:20.903Z,37.13
2019-01-23T11:11:57.496Z,37.20
2019-01-23T11:14:31.659Z,37.03
2019-01-23T11:17:08.682Z,35.70
2019-01-23T11:19:46.409Z,35.13
2019-01-23T11:22:22.110Z,36.97
2019-01-23T11:25:01.916Z,35.07
2019-01-23T11:27:40.371Z,32.20
2019-01-23T11:30:25.785Z,34.03
2019-01-23T11:33:00.124Z,37.13
2019-01-23T11:35:35.597Z,33.77
2019-01-23T11:38:13.455Z,34.63
2019-01-23T11:40:52.328Z,37.90
2019-01-23T11:43:27.565Z,35.47
2019-01-23T11:46:01.973Z,38.87
2019-01-23T11:48:39.084Z,36.53
2019-01-23T11:51:14.506Z,36.70
2019-01-23T11:53:49.604Z,36.13
2019-01-23T11:56:25.963Z,38.43
2019-01-23T11:58:58.826Z,34.40
2019-01-23T12:01:34.740Z,37.03
2019-01-23T12:04:07.808Z,35.67
2019-01-23T12:06:42.547Z,33.97
2019-01-23T12:09:18.723Z,35.27
2019-01-23T12:11:52.735Z,35.80
2019-01-23T12:14:29.120Z,34.93
2019-01-23T12:17:05.282Z,39.90
2019-01-23T12:19:38.316Z,37.00
2019-01-23T12:22:11.908Z,33.53
2019-01-23T12:24:46.213Z,33.08
2019-01-23T12:27:19.774Z,34.03
2019-01-23T12:29:55.611Z,34.60
2019-01-23T12:32:34.694Z,35.03
2019-01-23T12:35:10.199Z,38.07
2019-01-23T12:37:45.157Z,36.22
2019-01-23T12:40:21.877Z,34.97
2019-01-23T12:42:57.663Z,36.30
2019-01-23T12:45:31.420Z,32.40
2019-01-23T12:48:05.892Z,35.50
2019-01-23T12:50:39.617Z,33.13
2019-01-23T12:53:14.630Z,34.03
2019-01-23T12:55:51.393Z,35.77
2019-01-23T12:58:25.534Z,34.80
2019-01-23T13:00:59.810Z,38.90
2019-01-23T13:03:35.186Z,34.77
2019-01-23T13:06:10.435Z,32.67
2019-01-23T13:08:44.288Z,37.67
2019-01-23T13:11:20.420Z,39.00
2019-01-23T13:14:04.073Z,35.77
2019-01-23T13:16:38.152Z,37.57
2019-01-23T13:19:13.511Z,36.97
2019-01-23T13:21:49.175Z,38.93
2019-01-23T13:24:23.784Z,39.27
2019-01-23T13:27:07.210Z,38.67
2019-01-23T13:29:49.965Z,35.50
2019-01-23T13:32:24.414Z,36.95
2019-01-23T13:34:59.917Z,36.90
2019-01-23T13:37:37.788Z,37.70
2019-01-23T13:40:23.067Z,34.08
2019-01-23T13:42:57.891Z,35.93
2019-01-23T13:45:32.363Z,34.20
2019-01-23T13:48:11.729Z,37.33
2019-01-23T13:50:45.782Z,33.30
2019-01-23T13:53:19.749Z,34.83
2019-01-23T13:55:56.008Z,37.53
2019-01-23T13:58:29.667Z,36.27
2019-01-23T14:01:02.598Z,37.53
2019-01-23T14:03:37.887Z,35.87
2019-01-23T14:06:10.842Z,38.73
2019-01-23T14:08:44.851Z,40.40
2019-01-23T14:11:18.486Z,38.90
2019-01-23T14:13:52.561Z,38.40
2019-01-23T14:16:29.282Z,36.17
2019-01-23T14:19:02.524Z,44.47
2019-01-23T14:21:36.212Z,45.67
2019-01-23T14:24:12.611Z,42.97
2019-01-23T14:26:48.100Z,42.30
2019-01-23T14:29:23.608Z,42.90
2019-01-23T14:32:03.040Z,36.70
2019-01-23T14:34:38.253Z,38.07
2019-01-23T14:37:12.835Z,40.27
2019-01-23T14:39:46.815Z,35.33
2019-01-23T14:42:22.478Z,39.33
2019-01-23T14:45:18.707Z,41.70
2019-01-23T14:48:15.403Z,39.27
2019-01-23T14:51:03.897Z,37.45
2019-01-23T14:53:59.354Z,36.97
2019-01-23T14:56:34.704Z,38.43
2019-01-23T14:59:10.615Z,39.20
2019-01-23T15:01:44.711Z,39.13
2019-01-23T15:04:19.614Z,38.20
2019-01-23T15:06:54.185Z,37.90
2019-01-23T15:09:36.485Z,38.70
2019-01-23T15:12:11.756Z,41.53
2019-01-23T15:14:47.152Z,39.93
2019-01-23T15:17:22.900Z,37.03
2019-01-23T15:19:56.204Z,39.00
2019-01-23T15:22:31.589Z,37.87
2019-01-23T15:25:06.204Z,33.83
2019-01-23T15:27:40.445Z,38.23
2019-01-23T15:30:25.099Z,37.83
2019-01-23T15:32:58.253Z,43.73
2019-01-23T15:35:34.012Z,38.53
2019-01-23T15:38:17.318Z,40.97
2019-01-23T15:40:51.582Z,40.73
2019-01-23T15:43:32.871Z,38.40
2019-01-23T15:46:10.157Z,37.77
2019-01-23T15:48:48.949Z,39.73
2019-01-23T15:51:23.006Z,37.07
2019-01-23T15:53:56.219Z,44.50
2019-01-23T15:56:32.931Z,40.70
2019-01-23T15:59:06.487Z,38.73
2019-01-23T16:01:43.540Z,46.70
2019-01-23T16:04:16.511Z,45.27
2019-01-23T16:06:49.691Z,45.27
2019-01-23T16:09:25.590Z,49.13
2019-01-23T16:12:09.459Z,49.20
2019-01-23T16:14:50.617Z,46.57
2019-01-23T16:17:27.641Z,46.40
2019-01-23T16:20:03.344Z,49.90
2019-01-23T16:22:37.111Z,48.63
2019-01-23T16:25:14.736Z,47.70
2019-01-23T16:27:51.367Z,49.63
2019-01-23T16:30:32.636Z,48.90
2019-01-23T16:33:13.586Z,47.87
2019-01-23T16:35:48.213Z,51.80
2019-01-23T16:38:25.495Z,48.33
2019-01-23T16:40:59.405Z,45.83
2019-01-23T16:43:32.415Z,51.63
2019-01-23T16:46:06.940Z,51.00
2019-01-23T16:48:42.423Z,46.30
2019-01-23T16:51:15.964Z,47.87
2019-01-23T16:53:50.568Z,49.75
2019-01-23T16:56:25.367Z,55.10
2019-01-23T16:59:03.942Z,50.35
2019-01-23T17:01:38.124Z,51.17
2019-01-23T17:04:15.304Z,52.30
2019-01-23T17:06:50.925Z,55.93
2019-01-23T17:09:28.397Z,55.73
2019-01-23T17:12:01.482Z,55.07
2019-01-23T17:14:36.797Z,57.53
2019-01-23T17:17:11.173Z,57.87
2019-01-23T17:19:44.605Z,52.92
2019-01-23T17:22:19.140Z,57.87
2019-01-23T17:24:58.102Z,63.60
2019-01-23T17:27:34.064Z,58.23
2019-01-23T17:30:10.290Z,59.33
2019-01-23T17:32:47.413Z,60.40
2019-01-23T17:35:25.396Z,57.90
2019-01-23T17:37:59.910Z,58.72
2019-01-23T17:40:36.600Z,59.30
2019-01-23T17:43:13.532Z,55.40
2019-01-23T17:45:47.773Z,54.33
2019-01-23T17:48:24.219Z,55.43
2019-01-23T17:50:59.765Z,49.40
2019-01-23T17:53:33.851Z,49.17
2019-01-23T17:56:12.834Z,50.60
2019-01-23T17:58:50.969Z,51.10
2019-01-23T18:01:26.021Z,48.42
2019-01-23T18:04:07.175Z,49.73
2019-01-23T18:06:42.279Z,47.28
2019-01-23T18:09:17.760Z,51.90
2019-01-23T18:11:55.362Z,50.33
2019-01-23T18:14:32.463Z,50.93
2019-01-23T18:17:11.529Z,50.63
2019-01-23T18:19:51.607Z,46.73
2019-01-23T18:22:29.879Z,45.13
2019-01-23T18:25:08.435Z,50.17
2019-01-23T18:27:49.709Z,50.60
2019-01-23T18:30:39.545Z,49.10
2019-01-23T18:33:27.860Z,49.03
2019-01-23T18:36:49.236Z,53.70
2019-01-23T18:40:04.998Z,55.50
2019-01-23T18:43:28.809Z,51.90
2019-01-23T18:46:52.575Z,52.80
2019-01-23T18:50:46.065Z,53.47
2019-01-23T18:53:39.118Z,53.38
2019-01-23T18:56:14.711Z,54.60
2019-01-23T18:58:53.761Z,54.23
2019-01-23T19:01:30.079Z,55.47
2019-01-23T19:04:06.989Z,55.17
2019-01-23T19:07:00.401Z,58.30
2019-01-23T19:09:37.505Z,58.37
2019-01-23T19:12:10.666Z,55.83
2019-01-23T19:14:46.143Z,61.00
2019-01-23T19:17:21.722Z,61.93
2019-01-23T19:19:54.775Z,58.07
2019-01-23T19:22:31.404Z,57.97
2019-01-23T19:25:05.917Z,61.50
2019-01-23T19:27:44.206Z,60.27
2019-01-23T19:30:21.894Z,58.97
2019-01-23T19:32:57.201Z,58.20
2019-01-23T19:35:34.258Z,58.37
2019-01-23T19:38:10.849Z,59.30
2019-01-23T19:40:49.588Z,54.87
2019-01-23T19:43:22.711Z,58.97
2019-01-23T19:45:58.011Z,54.83
2019-01-23T19:48:31.813Z,52.92
2019-01-23T19:51:06.926Z,54.53
2019-01-23T19:53:45.015Z,57.87
2019-01-23T19:56:19.019Z,57.03
2019-01-23T19:58:55.110Z,55.83
2019-01-23T20:01:29.183Z,57.67
2019-01-23T20:04:02.932Z,57.40
2019-01-23T20:06:40.236Z,55.63
2019-01-23T20:09:16.897Z,56.10
2019-01-23T20:11:52.637Z,56.10
2019-01-23T20:14:32.166Z,56.03
2019-01-23T20:17:07.486Z,57.53
2019-01-23T20:19:40.588Z,52.60
2019-01-23T20:22:16.045Z,56.27
2019-01-23T20:24:54.649Z,59.00
2019-01-23T20:27:37.619Z,58.70
2019-01-23T20:30:26.891Z,56.83
2019-01-23T20:33:01.004Z,55.70
2019-01-23T20:35:37.313Z,54.73
2019-01-23T20:38:21.585Z,58.80
2019-01-23T20:40:55.552Z,55.90
2019-01-23T20:43:32.059Z,56.33
2019-01-23T20:46:06.510Z,58.87
2019-01-23T20:48:40.533Z,56.43
2019-01-23T20:51:16.752Z,57.33
2019-01-23T20:53:51.383Z,60.90
2019-01-23T20:56:24.383Z,59.43
2019-01-23T20:58:59.238Z,55.67
2019-01-23T21:01:33.511Z,59.50
2019-01-23T21:04:06.696Z,54.10
2019-01-23T21:06:41.309Z,53.37
2019-01-23T21:09:14.462Z,56.73
2019-01-23T21:11:48.781Z,56.73
2019-01-23T21:14:23.107Z,54.90
2019-01-23T21:16:57.547Z,53.63
2019-01-23T21:19:34.674Z,54.07
2019-01-23T21:22:09.239Z,55.75
2019-01-23T21:24:43.391Z,56.23
2019-01-23T21:27:16.597Z,58.70
2019-01-23T21:29:55.263Z,53.67
2019-01-23T21:32:39.210Z,54.67
2019-01-23T21:35:16.195Z,53.10
2019-01-23T21:37:53.634Z,52.62
2019-01-23T21:40:31.990Z,55.90
2019-01-23T21:43:06.687Z,59.30
2019-01-23T21:45:44.846Z,55.03
2019-01-23T21:48:17.762Z,58.03
2019-01-23T21:50:51.024Z,52.80
2019-01-23T21:53:26.562Z,58.47
2019-01-23T21:56:04.683Z,51.97
2019-01-23T21:58:39.480Z,54.50
2019-01-23T22:01:14.750Z,54.10
2019-01-23T22:03:49.347Z,57.70
2019-01-23T22:06:23.540Z,51.70
2019-01-23T22:09:01.292Z,54.90
2019-01-23T22:11:43.461Z,55.22
2019-01-23T22:14:19.141Z,58.27
2019-01-23T22:16:54.061Z,54.65
2019-01-23T22:19:28.197Z,53.50
2019-01-23T22:22:00.832Z,52.33
2019-01-23T22:24:35.000Z,54.63
2019-01-23T22:27:08.109Z,56.63
2019-01-23T22:29:42.168Z,54.33
2019-01-23T22:32:17.356Z,53.07
2019-01-23T22:34:50.262Z,47.33
2019-01-23T22:37:26.559Z,54.97
2019-01-23T22:40:07.812Z,54.93
2019-01-23T22:42:42.509Z,55.23
2019-01-23T22:45:19.777Z,55.40
2019-01-23T22:47:53.277Z,55.10
2019-01-23T22:50:29.604Z,52.47
2019-01-23T22:53:02.984Z,53.57
2019-01-23T22:55:39.096Z,56.07
2019-01-23T22:58:14.769Z,53.83
2019-01-23T23:01:11.111Z,56.37
2019-01-23T23:03:44.417Z,53.93
2019-01-23T23:06:22.438Z,56.07
2019-01-23T23:09:00.188Z,53.50
2019-01-23T23:11:34.414Z,53.72
2019-01-23T23:14:08.195Z,54.73
2019-01-23T23:16:41.099Z,54.40
2019-01-23T23:19:14.149Z,56.83
2019-01-23T23:21:48.577Z,56.60
2019-01-23T23:24:21.815Z,56.67
2019-01-23T23:26:55.312Z,57.83
2019-01-23T23:29:28.665Z,58.67
2019-01-23T23:32:03.476Z,59.67
2019-01-23T23:34:38.983Z,53.43
2019-01-23T23:37:13.401Z,54.20
2019-01-23T23:39:47.901Z,55.40
2019-01-23T23:42:20.841Z,58.37
2019-01-23T23:44:56.679Z,55.30
2019-01-23T23:47:30.832Z,57.20
2019-01-23T23:50:06.663Z,53.50
2019-01-23T23:52:40.748Z,54.50
2019-01-23T23:55:14.716Z,59.30
2019-01-23T23:57:49.032Z,59.40
